Terminal Aerodrome Forecast
Issued by NWS Jacksonville, FL

Home | Current Version | Previous Version | Text Only | Print | Product List | Glossary On
Versions: 1 2 3 4 5 6 7 8 9 10 11 12 13 14 15 16 17 18 19 20 21 22 23 24 25 26 27 28 29 30 31 32 33 34 35 36 37 38 39 40 41 42 43 44 45 46 47 48 49 50
898
FTUS42 KJAX 190520
TAFSSI
TAF
KSSI 190520Z 1906/2006 22005KT P6SM FEW060 FEW120 BKN250
     FM191400 21005KT P6SM SCT050 BKN120
     FM191800 21008KT P6SM VCTS SCT050CB BKN100 PROB30 1918/1924 5SM
      TSRA BKN050CB
     FM200000 18005KT P6SM BKN250=

USA.gov is the U.S. government's official web portal to all federal, state and local government web resources and services.